createdAt,value
2023-05-19T00:00:51.145Z,6.24
2023-05-19T00:01:53.323Z,6.24
2023-05-19T00:02:57.112Z,6.23
2023-05-19T00:04:02.726Z,6.23
2023-05-19T00:05:05.207Z,6.23
2023-05-19T00:06:10.723Z,6.21
2023-05-19T00:07:14.486Z,6.18
2023-05-19T00:08:17.491Z,6.13
2023-05-19T00:09:20.142Z,6.09
2023-05-19T00:10:22.016Z,6.03
2023-05-19T00:11:25.522Z,6.01
2023-05-19T00:12:27.369Z,6.00
2023-05-19T00:13:29.680Z,6.00
2023-05-19T00:14:31.536Z,5.98
2023-05-19T00:15:33.724Z,5.99
2023-05-19T00:16:37.910Z,5.97
2023-05-19T00:17:42.438Z,5.96
2023-05-19T00:18:44.201Z,5.95
2023-05-19T00:19:45.964Z,5.92
2023-05-19T00:20:47.565Z,5.91
2023-05-19T00:21:49.293Z,5.88
2023-05-19T00:22:51.476Z,5.85
2023-05-19T00:23:54.645Z,5.81
2023-05-19T00:24:56.453Z,5.78
2023-05-19T00:25:58.116Z,5.77
2023-05-19T00:26:59.855Z,5.77
2023-05-19T00:28:02.528Z,5.77
2023-05-19T00:29:04.578Z,5.77
2023-05-19T00:30:07.248Z,5.78
2023-05-19T00:31:08.905Z,5.80
2023-05-19T00:32:10.591Z,5.80
2023-05-19T00:33:12.563Z,5.82
2023-05-19T00:34:14.399Z,5.82
2023-05-19T00:35:16.505Z,5.84
2023-05-19T00:36:18.321Z,5.87
2023-05-19T00:37:20.582Z,5.86
2023-05-19T00:38:22.239Z,5.87
2023-05-19T00:39:23.976Z,5.86
2023-05-19T00:40:25.934Z,5.85
2023-05-19T00:41:27.613Z,5.82
2023-05-19T00:42:29.444Z,5.80
2023-05-19T00:43:31.501Z,5.79
2023-05-19T00:44:33.354Z,5.77
2023-05-19T00:45:35.633Z,5.76
2023-05-19T00:46:37.996Z,5.75
2023-05-19T00:47:39.709Z,5.73
2023-05-19T00:48:44.579Z,5.72
2023-05-19T00:49:46.270Z,5.72
2023-05-19T00:50:49.184Z,5.71
2023-05-19T00:51:50.802Z,5.69
2023-05-19T00:52:52.644Z,5.67
2023-05-19T00:53:54.368Z,5.66
2023-05-19T00:54:56.413Z,5.63
2023-05-19T00:56:00.000Z,5.61
2023-05-19T00:57:01.757Z,5.61
2023-05-19T00:58:05.422Z,5.61
2023-05-19T00:59:08.053Z,5.62
2023-05-19T01:00:11.196Z,5.60
2023-05-19T01:01:14.626Z,5.63
2023-05-19T01:02:16.433Z,5.63
2023-05-19T01:04:25.545Z,5.67
2023-05-19T01:05:27.219Z,5.68
2023-05-19T01:06:29.593Z,5.68
2023-05-19T01:07:31.310Z,5.68
2023-05-19T01:08:34.336Z,5.68
2023-05-19T01:09:37.322Z,5.68
2023-05-19T01:10:39.120Z,5.69
2023-05-19T01:11:40.868Z,5.69
2023-05-19T01:12:42.630Z,5.68
2023-05-19T01:13:44.476Z,5.67
2023-05-19T01:14:46.387Z,5.66
2023-05-19T01:16:32.388Z,5.66
2023-05-19T01:17:49.399Z,5.64
2023-05-19T01:18:56.196Z,5.65
2023-05-19T01:20:10.969Z,5.65
2023-05-19T01:21:36.466Z,5.65
2023-05-19T01:22:57.246Z,5.63
2023-05-19T01:24:17.891Z,5.60
2023-05-19T01:25:44.647Z,5.58
2023-05-19T01:27:08.107Z,5.56
2023-05-19T01:28:38.524Z,5.54
2023-05-19T01:29:57.424Z,5.54
2023-05-19T01:31:00.672Z,5.52
2023-05-19T01:32:04.825Z,5.52
2023-05-19T01:33:09.938Z,5.51
2023-05-19T01:34:16.371Z,5.52
2023-05-19T01:35:19.223Z,5.51
2023-05-19T01:36:23.478Z,5.50
2023-05-19T01:37:26.794Z,5.48
2023-05-19T01:38:29.771Z,5.48
2023-05-19T01:39:33.487Z,5.48
2023-05-19T01:40:37.209Z,5.47
2023-05-19T01:41:41.714Z,5.50
2023-05-19T01:42:45.471Z,5.47
2023-05-19T01:43:48.728Z,5.47
2023-05-19T01:44:52.050Z,5.46
2023-05-19T01:45:55.067Z,5.45
2023-05-19T01:46:57.073Z,5.46
2023-05-19T01:48:01.836Z,5.46
2023-05-19T01:49:04.559Z,5.46
2023-05-19T01:50:06.924Z,5.46
2023-05-19T01:51:08.792Z,5.45
2023-05-19T01:52:10.469Z,5.43
2023-05-19T01:53:12.335Z,5.44
2023-05-19T01:54:14.039Z,5.44
2023-05-19T01:55:15.969Z,5.44
2023-05-19T01:56:38.349Z,5.45
2023-05-19T01:58:03.294Z,5.44
2023-05-19T01:59:23.996Z,5.45
2023-05-19T02:00:47.493Z,5.44
2023-05-19T02:01:57.052Z,5.45
2023-05-19T02:03:01.775Z,5.45
2023-05-19T02:04:28.702Z,5.46
2023-05-19T02:05:38.441Z,5.46
2023-05-19T02:06:58.687Z,5.45
2023-05-19T02:08:19.568Z,5.45
2023-05-19T02:09:39.820Z,5.45
2023-05-19T02:10:45.602Z,5.43
2023-05-19T02:11:55.403Z,5.43
2023-05-19T02:13:01.499Z,5.43
2023-05-19T02:14:16.057Z,5.42
2023-05-19T02:15:21.483Z,5.42
2023-05-19T02:16:29.327Z,5.42
2023-05-19T02:17:33.338Z,5.43
2023-05-19T02:18:35.925Z,5.42
2023-05-19T02:19:40.023Z,5.42
2023-05-19T02:20:42.593Z,5.43
2023-05-19T02:21:44.312Z,5.40
2023-05-19T02:22:46.028Z,5.41
2023-05-19T02:23:48.760Z,5.38
2023-05-19T02:24:51.792Z,5.37
2023-05-19T02:25:53.749Z,5.37
2023-05-19T02:26:55.552Z,5.36
2023-05-19T02:27:58.777Z,5.35
2023-05-19T02:29:00.413Z,5.35
2023-05-19T02:30:03.535Z,5.35
2023-05-19T02:31:10.054Z,5.34
2023-05-19T02:32:11.940Z,5.35
2023-05-19T02:33:15.081Z,5.37
2023-05-19T02:34:18.121Z,5.36
2023-05-19T02:35:21.022Z,5.37
2023-05-19T02:36:22.827Z,5.38
2023-05-19T02:37:28.747Z,5.41
2023-05-19T02:38:30.425Z,5.41
2023-05-19T02:39:35.203Z,5.42
2023-05-19T02:40:37.373Z,5.44
2023-05-19T02:41:39.467Z,5.45
2023-05-19T02:42:41.283Z,5.46
2023-05-19T02:43:42.932Z,5.46
2023-05-19T02:44:44.912Z,5.47
2023-05-19T02:45:47.125Z,5.47
2023-05-19T02:46:49.009Z,5.47
2023-05-19T02:47:50.775Z,5.46
2023-05-19T02:48:52.648Z,5.46
2023-05-19T02:49:54.850Z,5.45
2023-05-19T02:50:56.916Z,5.42
2023-05-19T02:51:58.814Z,5.38
2023-05-19T02:53:00.507Z,5.35
2023-05-19T02:54:02.145Z,5.31
2023-05-19T02:55:04.331Z,5.27
2023-05-19T02:56:06.216Z,5.25
2023-05-19T02:57:07.896Z,5.23
2023-05-19T02:58:09.736Z,5.22
2023-05-19T02:59:11.561Z,5.22
2023-05-19T03:00:13.749Z,5.22
2023-05-19T03:01:16.527Z,5.23
2023-05-19T03:02:18.609Z,5.23
2023-05-19T03:03:20.587Z,5.24
2023-05-19T03:04:22.425Z,5.25
2023-05-19T03:05:24.156Z,5.23
2023-05-19T03:06:25.932Z,5.22
2023-05-19T03:07:27.821Z,5.22
2023-05-19T03:08:29.560Z,5.21
2023-05-19T03:09:31.418Z,5.18
2023-05-19T03:10:33.455Z,5.19
2023-05-19T03:11:35.714Z,5.19
2023-05-19T03:12:37.973Z,5.18
2023-05-19T03:13:39.728Z,5.20
2023-05-19T03:14:41.463Z,5.21
2023-05-19T03:15:43.288Z,5.23
2023-05-19T03:16:45.252Z,5.24
2023-05-19T03:17:47.246Z,5.24
2023-05-19T03:18:49.066Z,5.23
2023-05-19T03:19:51.284Z,5.23
2023-05-19T03:20:54.032Z,5.21
2023-05-19T03:21:56.500Z,5.20
2023-05-19T03:22:58.523Z,5.19
2023-05-19T03:24:01.208Z,5.21
2023-05-19T03:25:03.484Z,5.21
2023-05-19T03:26:05.388Z,5.21
2023-05-19T03:27:07.101Z,5.20
2023-05-19T03:28:08.926Z,5.22
2023-05-19T03:29:10.593Z,5.21
2023-05-19T03:30:13.440Z,5.23
2023-05-19T03:31:28.508Z,5.26
2023-05-19T03:32:30.263Z,5.27
2023-05-19T03:33:32.040Z,5.30
2023-05-19T03:34:33.947Z,5.33
2023-05-19T03:35:35.891Z,5.35
2023-05-19T03:36:39.462Z,5.38
2023-05-19T03:37:45.417Z,5.40
2023-05-19T03:38:47.126Z,5.41
2023-05-19T03:39:49.152Z,5.43
2023-05-19T03:40:51.055Z,5.44
2023-05-19T03:41:52.746Z,5.46
2023-05-19T03:42:54.604Z,5.47
2023-05-19T03:43:56.461Z,5.48
2023-05-19T03:44:58.120Z,5.51
2023-05-19T03:45:59.957Z,5.52
2023-05-19T03:47:20.152Z,5.54
2023-05-19T03:48:38.686Z,5.53
2023-05-19T03:50:03.601Z,5.53
2023-05-19T03:51:18.136Z,5.55
2023-05-19T03:52:21.691Z,5.57
2023-05-19T03:53:35.068Z,5.58
2023-05-19T03:54:39.563Z,5.61
2023-05-19T03:55:41.296Z,5.63
2023-05-19T03:56:43.519Z,5.67
2023-05-19T03:57:45.206Z,5.68
2023-05-19T03:58:48.449Z,5.71
2023-05-19T03:59:50.155Z,5.74
2023-05-19T04:00:51.754Z,5.79
2023-05-19T04:01:53.777Z,5.81
2023-05-19T04:02:55.623Z,5.85
2023-05-19T04:03:57.475Z,5.89
2023-05-19T04:04:59.290Z,5.92
2023-05-19T04:06:00.962Z,5.96
2023-05-19T04:07:02.715Z,6.02
2023-05-19T04:08:04.448Z,6.06
2023-05-19T04:09:12.834Z,6.12
2023-05-19T04:10:14.616Z,6.16
2023-05-19T04:11:16.425Z,6.20
2023-05-19T04:12:18.280Z,6.23
2023-05-19T04:13:21.499Z,6.28
2023-05-19T04:14:23.579Z,6.31
2023-05-19T04:15:26.032Z,6.35
2023-05-19T04:16:27.881Z,6.38
2023-05-19T04:17:29.727Z,6.39
2023-05-19T04:18:31.560Z,6.43
2023-05-19T04:19:33.672Z,6.44
2023-05-19T04:20:36.762Z,6.48
2023-05-19T04:21:38.861Z,6.50
2023-05-19T04:22:40.478Z,6.53
2023-05-19T04:23:42.080Z,6.55
2023-05-19T04:24:43.891Z,6.57
2023-05-19T04:25:48.629Z,6.59
2023-05-19T04:26:50.847Z,6.60
2023-05-19T04:27:53.027Z,6.61
2023-05-19T04:28:56.872Z,6.64
2023-05-19T04:29:59.536Z,6.66
2023-05-19T04:31:01.644Z,6.68
2023-05-19T04:32:07.919Z,6.71
2023-05-19T04:33:10.384Z,6.74
2023-05-19T04:34:12.418Z,6.77
2023-05-19T04:35:15.406Z,6.80
2023-05-19T04:36:21.325Z,6.82
2023-05-19T04:37:25.867Z,6.83
2023-05-19T04:38:29.929Z,6.89
2023-05-19T04:39:32.134Z,6.91
2023-05-19T04:40:34.738Z,6.95
2023-05-19T04:41:36.530Z,6.97
2023-05-19T04:42:45.812Z,7.00
2023-05-19T04:43:50.065Z,7.04
2023-05-19T04:44:53.621Z,7.07
2023-05-19T04:45:58.483Z,7.09
2023-05-19T04:47:00.807Z,7.13
2023-05-19T04:48:02.755Z,7.15
2023-05-19T04:49:04.765Z,7.19
2023-05-19T04:50:07.482Z,7.23
2023-05-19T04:51:09.565Z,7.26
2023-05-19T04:52:11.668Z,7.27
2023-05-19T04:53:15.724Z,7.29
2023-05-19T04:54:18.057Z,7.31
2023-05-19T04:55:20.690Z,7.34
2023-05-19T04:56:24.400Z,7.38
2023-05-19T04:57:26.235Z,7.40
2023-05-19T04:58:27.857Z,7.43
2023-05-19T04:59:29.890Z,7.45
2023-05-19T05:00:32.183Z,7.46
2023-05-19T05:01:40.908Z,7.48
2023-05-19T05:02:45.542Z,7.50
2023-05-19T05:03:48.344Z,7.51
2023-05-19T05:04:50.761Z,7.52
2023-05-19T05:05:52.541Z,7.54
2023-05-19T05:06:54.491Z,7.56
2023-05-19T05:07:57.580Z,7.58
2023-05-19T05:09:03.951Z,7.61
2023-05-19T05:10:07.263Z,7.63
2023-05-19T05:11:09.465Z,7.66
2023-05-19T05:12:12.530Z,7.67
2023-05-19T05:13:15.609Z,7.69
2023-05-19T05:14:18.512Z,7.73
2023-05-19T05:15:24.942Z,7.74
2023-05-19T05:16:27.309Z,7.77
2023-05-19T05:17:30.327Z,7.80
2023-05-19T05:18:33.622Z,7.83
2023-05-19T05:19:36.001Z,7.86
2023-05-19T05:20:38.977Z,7.88
2023-05-19T05:21:41.765Z,7.90
2023-05-19T05:22:44.383Z,7.93
2023-05-19T05:23:46.976Z,7.95
2023-05-19T05:24:49.496Z,7.97
2023-05-19T05:25:51.707Z,8.00
2023-05-19T05:26:53.988Z,8.04
2023-05-19T05:27:55.886Z,8.06
2023-05-19T05:28:58.502Z,8.09
2023-05-19T05:30:00.609Z,8.10
2023-05-19T05:31:03.734Z,8.12
2023-05-19T05:32:06.017Z,8.15
2023-05-19T05:33:08.854Z,8.16
2023-05-19T05:34:13.641Z,8.19
2023-05-19T05:35:15.585Z,8.21
2023-05-19T05:36:17.841Z,8.25
2023-05-19T05:37:19.706Z,8.29
2023-05-19T05:38:21.534Z,8.32
2023-05-19T05:39:23.899Z,8.37
2023-05-19T05:40:25.624Z,8.39
2023-05-19T05:41:34.976Z,8.42
2023-05-19T05:42:40.488Z,8.43
2023-05-19T05:43:42.377Z,8.47
2023-05-19T05:44:44.035Z,8.51
2023-05-19T05:45:45.837Z,8.57
2023-05-19T05:46:48.197Z,8.61
2023-05-19T05:47:50.935Z,8.63
2023-05-19T05:48:52.891Z,8.64
2023-05-19T05:49:54.924Z,8.66
2023-05-19T05:50:57.408Z,8.67
2023-05-19T05:52:06.252Z,8.71
2023-05-19T05:53:19.245Z,8.72
2023-05-19T05:54:23.294Z,8.80
2023-05-19T05:55:26.540Z,8.87
2023-05-19T05:56:28.774Z,8.94
2023-05-19T05:57:30.764Z,9.01
2023-05-19T05:58:35.799Z,9.07
2023-05-19T05:59:40.696Z,9.10
2023-05-19T06:00:43.787Z,9.15
2023-05-19T06:01:46.121Z,9.22
2023-05-19T06:02:51.309Z,9.28
2023-05-19T06:03:54.123Z,9.30
2023-05-19T06:04:58.320Z,9.37
2023-05-19T06:06:00.498Z,9.41
2023-05-19T06:07:04.827Z,9.47
2023-05-19T06:08:10.071Z,9.53
2023-05-19T06:09:12.442Z,9.58
2023-05-19T06:10:14.267Z,9.63
2023-05-19T06:11:16.355Z,9.69
2023-05-19T06:12:18.042Z,9.77
2023-05-19T06:13:24.083Z,9.83
2023-05-19T06:14:25.965Z,9.87
2023-05-19T06:15:46.231Z,9.91
2023-05-19T06:16:57.384Z,9.94
2023-05-19T06:17:59.260Z,9.98
2023-05-19T06:19:01.378Z,10.01
2023-05-19T06:20:05.701Z,10.06
2023-05-19T06:21:10.119Z,10.08
2023-05-19T06:22:12.230Z,10.10
2023-05-19T06:23:14.462Z,10.13
2023-05-19T06:24:16.121Z,10.17
2023-05-19T06:25:17.976Z,10.21
2023-05-19T06:26:19.842Z,10.22
2023-05-19T06:27:21.690Z,10.24
2023-05-19T06:28:23.561Z,10.27
2023-05-19T06:29:26.899Z,10.32
2023-05-19T06:30:30.745Z,10.38
2023-05-19T06:31:52.028Z,10.46
2023-05-19T06:32:54.498Z,10.52
2023-05-19T06:33:56.356Z,10.57
2023-05-19T06:34:58.592Z,10.54
2023-05-19T06:36:00.610Z,10.59
2023-05-19T06:37:03.858Z,10.63
2023-05-19T06:38:06.677Z,10.66
2023-05-19T06:39:08.652Z,10.66
2023-05-19T06:40:11.645Z,10.73
2023-05-19T06:41:14.734Z,10.80
2023-05-19T06:42:16.845Z,10.84
2023-05-19T06:43:38.809Z,10.90
2023-05-19T06:44:40.654Z,10.93
2023-05-19T06:45:46.183Z,10.91
2023-05-19T06:46:47.929Z,10.89
2023-05-19T06:47:49.864Z,10.94
2023-05-19T06:48:52.023Z,11.00
2023-05-19T06:49:57.521Z,11.07
2023-05-19T06:51:02.564Z,11.10
2023-05-19T06:52:06.138Z,11.15
2023-05-19T06:53:07.804Z,11.22
2023-05-19T06:54:15.946Z,11.28
2023-05-19T06:55:17.659Z,11.38
2023-05-19T06:56:19.727Z,11.46
2023-05-19T06:57:21.758Z,11.51
2023-05-19T06:58:24.636Z,11.61
2023-05-19T06:59:26.390Z,11.64
2023-05-19T07:00:30.350Z,11.67
2023-05-19T07:01:32.591Z,11.77
2023-05-19T07:02:34.865Z,11.88
2023-05-19T07:03:40.092Z,11.98
2023-05-19T07:04:44.012Z,12.04
2023-05-19T07:05:48.931Z,12.15
2023-05-19T07:06:50.675Z,12.27
2023-05-19T07:07:52.753Z,12.38
2023-05-19T07:08:59.008Z,12.51
2023-05-19T07:10:01.322Z,12.63
2023-05-19T07:11:04.614Z,12.73
2023-05-19T07:12:06.431Z,12.82
2023-05-19T07:13:08.575Z,12.87
2023-05-19T07:14:11.165Z,12.94
2023-05-19T07:15:12.915Z,13.01
2023-05-19T07:16:14.849Z,13.07
2023-05-19T07:17:16.809Z,13.09
2023-05-19T07:18:20.127Z,13.16
2023-05-19T07:19:22.753Z,13.25
2023-05-19T07:20:25.094Z,13.27
2023-05-19T07:21:26.857Z,13.28
2023-05-19T07:22:30.098Z,13.35
2023-05-19T07:23:31.720Z,13.39
2023-05-19T07:24:33.669Z,13.44
2023-05-19T07:25:35.278Z,13.51
2023-05-19T07:26:37.824Z,13.56
2023-05-19T07:27:39.735Z,13.54
2023-05-19T07:28:42.798Z,13.54
2023-05-19T07:29:44.726Z,13.51
2023-05-19T07:30:46.368Z,13.46
2023-05-19T07:31:48.193Z,13.48
2023-05-19T07:32:49.872Z,13.50
2023-05-19T07:33:54.275Z,13.49
2023-05-19T07:34:56.302Z,13.50
2023-05-19T07:35:57.865Z,13.52
2023-05-19T07:37:00.291Z,13.55
2023-05-19T07:38:02.449Z,13.57
2023-05-19T07:39:04.583Z,13.62
2023-05-19T07:40:09.982Z,13.65
2023-05-19T07:41:11.623Z,13.63
2023-05-19T07:42:13.895Z,13.53
2023-05-19T07:43:15.574Z,13.51
2023-05-19T07:44:17.367Z,13.49
2023-05-19T07:45:19.025Z,13.55
2023-05-19T07:46:21.948Z,13.57
2023-05-19T07:47:24.525Z,13.63
2023-05-19T07:48:26.257Z,13.68
2023-05-19T07:49:27.847Z,13.69
2023-05-19T07:50:29.912Z,13.75
2023-05-19T07:51:31.789Z,13.78
2023-05-19T07:52:35.768Z,13.82
2023-05-19T07:53:37.640Z,13.88
2023-05-19T07:54:39.644Z,13.94
2023-05-19T07:55:41.280Z,14.01
2023-05-19T07:56:42.938Z,14.08
2023-05-19T07:57:44.859Z,14.15
2023-05-19T07:58:46.505Z,14.17
2023-05-19T07:59:48.206Z,14.19
2023-05-19T08:00:50.066Z,14.20
2023-05-19T08:01:52.109Z,14.18
2023-05-19T08:02:54.146Z,14.22
2023-05-19T08:03:56.740Z,14.25
2023-05-19T08:04:58.802Z,14.31
2023-05-19T08:06:00.482Z,14.33
2023-05-19T08:07:02.220Z,14.34
2023-05-19T08:08:04.332Z,14.36
2023-05-19T08:09:06.137Z,14.36
2023-05-19T08:10:08.060Z,14.42
2023-05-19T08:11:09.864Z,14.46
2023-05-19T08:12:11.478Z,14.53
2023-05-19T08:13:13.475Z,14.49
2023-05-19T08:14:15.252Z,14.48
2023-05-19T08:15:16.853Z,14.51
2023-05-19T08:16:18.941Z,14.57
2023-05-19T08:17:20.767Z,14.58
2023-05-19T08:18:22.526Z,14.53
2023-05-19T08:19:24.227Z,14.45
2023-05-19T08:20:25.897Z,14.47
2023-05-19T08:21:27.593Z,14.50
2023-05-19T08:22:29.383Z,14.58
2023-05-19T08:23:30.997Z,14.65
2023-05-19T08:24:35.457Z,14.67
2023-05-19T08:25:37.767Z,14.73
2023-05-19T08:26:39.742Z,14.75
2023-05-19T08:27:41.547Z,14.79
2023-05-19T08:28:44.273Z,14.76
2023-05-19T08:29:45.992Z,14.77
2023-05-19T08:30:47.553Z,14.75
2023-05-19T08:31:49.550Z,14.70
2023-05-19T08:32:51.345Z,14.65
2023-05-19T08:33:53.108Z,14.69
2023-05-19T08:34:54.781Z,14.67
2023-05-19T08:35:58.584Z,14.70
2023-05-19T08:37:00.276Z,14.72
2023-05-19T08:38:01.899Z,14.78
2023-05-19T08:39:04.066Z,14.83
2023-05-19T08:40:06.382Z,14.88
2023-05-19T08:41:08.477Z,14.91
2023-05-19T08:42:10.224Z,14.97
2023-05-19T08:43:12.869Z,15.02
2023-05-19T08:44:16.592Z,14.96
2023-05-19T08:45:20.694Z,14.96
2023-05-19T08:46:27.471Z,14.97
2023-05-19T08:47:29.668Z,14.94
2023-05-19T08:48:32.852Z,14.94
2023-05-19T08:49:53.479Z,14.92
2023-05-19T08:51:09.030Z,14.83
2023-05-19T08:52:35.896Z,14.92
2023-05-19T08:53:51.161Z,14.98
2023-05-19T08:55:04.878Z,14.99
2023-05-19T08:56:12.372Z,14.95
2023-05-19T08:57:14.435Z,14.95
2023-05-19T08:58:20.358Z,14.91
2023-05-19T08:59:22.859Z,14.84
2023-05-19T09:00:26.530Z,14.90
2023-05-19T09:01:30.778Z,14.97
2023-05-19T09:02:36.825Z,15.00
2023-05-19T09:03:39.910Z,14.98
2023-05-19T09:04:46.229Z,14.98
2023-05-19T09:05:48.861Z,15.02
2023-05-19T09:06:51.521Z,15.02
2023-05-19T09:07:53.506Z,15.11
2023-05-19T09:08:55.385Z,15.17
2023-05-19T09:09:57.051Z,15.21
2023-05-19T09:10:59.605Z,15.24
2023-05-19T09:12:01.442Z,15.21
2023-05-19T09:13:03.117Z,15.25
2023-05-19T09:14:05.883Z,15.25
2023-05-19T09:15:10.297Z,15.18
2023-05-19T09:16:12.461Z,15.22
2023-05-19T09:17:15.787Z,15.27
2023-05-19T09:18:17.805Z,15.36
2023-05-19T09:19:21.380Z,15.42
2023-05-19T09:20:23.214Z,15.46
2023-05-19T09:21:31.642Z,15.47
2023-05-19T09:22:37.112Z,15.54
2023-05-19T09:23:39.026Z,15.59
2023-05-19T09:24:41.380Z,15.66
2023-05-19T09:25:53.888Z,15.68
2023-05-19T09:27:00.425Z,15.67
2023-05-19T09:28:02.506Z,15.70
2023-05-19T09:29:17.745Z,15.73
2023-05-19T09:30:20.487Z,15.73
2023-05-19T09:31:22.613Z,15.83
2023-05-19T09:32:26.754Z,15.81
2023-05-19T09:33:30.046Z,15.90
2023-05-19T09:34:32.323Z,15.94
2023-05-19T09:35:35.315Z,15.99
2023-05-19T09:36:39.983Z,16.00
2023-05-19T09:37:42.090Z,15.96
2023-05-19T09:38:45.584Z,15.97
2023-05-19T09:39:51.959Z,15.95
2023-05-19T09:40:57.691Z,15.97
2023-05-19T09:41:59.550Z,16.02
2023-05-19T09:43:05.426Z,16.08
2023-05-19T09:44:07.919Z,16.14
2023-05-19T09:45:09.985Z,16.16
2023-05-19T09:46:13.797Z,16.09
2023-05-19T09:47:16.882Z,16.01
2023-05-19T09:48:21.612Z,16.04
2023-05-19T09:49:31.267Z,16.01
2023-05-19T09:50:34.083Z,16.00
2023-05-19T09:51:41.797Z,16.04
2023-05-19T09:52:44.664Z,16.00
2023-05-19T09:53:46.610Z,15.97
2023-05-19T09:54:49.293Z,15.98
2023-05-19T09:55:55.446Z,16.00
2023-05-19T09:56:59.088Z,16.09
2023-05-19T09:58:04.042Z,16.13
2023-05-19T09:59:07.463Z,16.17
2023-05-19T10:00:19.949Z,16.17
2023-05-19T10:01:22.449Z,16.14
2023-05-19T10:02:26.195Z,16.17
2023-05-19T10:03:28.695Z,16.18
2023-05-19T10:04:31.602Z,16.21
2023-05-19T10:05:34.481Z,16.21
2023-05-19T10:06:37.039Z,16.17
2023-05-19T10:07:40.823Z,16.07
2023-05-19T10:08:44.286Z,16.04
2023-05-19T10:09:47.421Z,16.08
2023-05-19T10:10:49.674Z,15.97
2023-05-19T10:11:55.768Z,15.95
2023-05-19T10:13:00.343Z,16.00
2023-05-19T10:14:02.260Z,16.09
2023-05-19T10:15:05.723Z,16.14
2023-05-19T10:16:10.042Z,16.13
2023-05-19T10:17:13.026Z,16.12
2023-05-19T10:18:18.228Z,16.16
2023-05-19T10:19:27.864Z,16.21
2023-05-19T10:20:31.568Z,16.29
2023-05-19T10:21:33.616Z,16.38
2023-05-19T10:22:35.493Z,16.44
2023-05-19T10:23:38.138Z,16.53
2023-05-19T10:24:40.436Z,16.61
2023-05-19T10:25:42.889Z,16.61
2023-05-19T10:26:48.024Z,16.66
2023-05-19T10:28:14.724Z,16.70
2023-05-19T10:29:21.219Z,16.73
2023-05-19T10:30:35.849Z,16.76
2023-05-19T10:31:42.751Z,16.78
2023-05-19T10:32:46.738Z,16.79
2023-05-19T10:34:02.869Z,16.69
2023-05-19T10:35:08.522Z,16.61
2023-05-19T10:36:24.989Z,16.59
2023-05-19T10:37:41.909Z,16.51
2023-05-19T10:39:01.864Z,16.50
2023-05-19T10:40:21.912Z,16.55
2023-05-19T10:41:46.416Z,16.61
2023-05-19T10:43:14.198Z,16.65
2023-05-19T10:44:23.798Z,16.71
2023-05-19T10:45:29.390Z,16.79
2023-05-19T10:46:31.715Z,16.86
2023-05-19T10:47:35.004Z,16.91
2023-05-19T10:48:37.490Z,16.97
2023-05-19T10:49:39.972Z,17.01
2023-05-19T10:50:44.838Z,17.04
2023-05-19T10:51:46.818Z,17.09
2023-05-19T10:52:57.972Z,17.12
2023-05-19T10:54:06.221Z,17.01
2023-05-19T10:55:10.073Z,17.01
2023-05-19T10:56:12.557Z,17.05
2023-05-19T10:57:16.201Z,17.14
2023-05-19T10:58:36.387Z,17.14
2023-05-19T10:59:39.524Z,17.15
2023-05-19T11:00:44.545Z,17.17
2023-05-19T11:01:47.035Z,17.24
2023-05-19T11:02:55.925Z,17.36
2023-05-19T11:03:57.699Z,17.44
2023-05-19T11:05:18.545Z,17.51
2023-05-19T11:06:27.479Z,17.52
2023-05-19T11:07:29.830Z,17.57
2023-05-19T11:08:33.446Z,17.60
2023-05-19T11:09:41.057Z,17.58
2023-05-19T11:10:46.429Z,17.56
2023-05-19T11:11:54.910Z,17.56
2023-05-19T11:13:00.522Z,17.52
2023-05-19T11:14:02.128Z,17.57
2023-05-19T11:15:04.333Z,17.66
2023-05-19T11:16:09.961Z,17.75
2023-05-19T11:17:15.822Z,17.80
2023-05-19T11:18:20.305Z,17.85
2023-05-19T11:19:37.406Z,17.88
2023-05-19T11:20:39.701Z,17.83
2023-05-19T11:21:52.708Z,17.79
2023-05-19T11:23:06.980Z,17.66
2023-05-19T11:24:09.793Z,17.64
2023-05-19T11:25:11.431Z,17.65
2023-05-19T11:26:13.756Z,17.65
2023-05-19T11:27:28.552Z,17.68
2023-05-19T11:28:30.889Z,17.70
2023-05-19T11:29:34.240Z,17.74
2023-05-19T11:30:36.876Z,17.64
2023-05-19T11:31:39.785Z,17.56
2023-05-19T11:32:42.884Z,17.52
2023-05-19T11:33:45.277Z,17.55
2023-05-19T11:34:48.574Z,17.60
2023-05-19T11:35:51.171Z,17.66
2023-05-19T11:36:53.030Z,17.72
2023-05-19T11:37:54.876Z,17.81
2023-05-19T11:38:57.613Z,17.87
2023-05-19T11:40:02.546Z,17.93
2023-05-19T11:41:04.546Z,17.86
2023-05-19T11:42:10.596Z,17.90
2023-05-19T11:43:12.599Z,17.94
2023-05-19T11:44:14.268Z,17.89
2023-05-19T11:45:16.196Z,17.84
2023-05-19T11:46:18.256Z,17.85
2023-05-19T11:47:21.082Z,17.94
2023-05-19T11:48:23.030Z,18.01
2023-05-19T11:49:24.929Z,18.09
2023-05-19T11:50:27.597Z,18.12
2023-05-19T11:51:29.493Z,18.15
2023-05-19T11:52:31.194Z,18.14
2023-05-19T11:53:36.167Z,18.14
2023-05-19T11:54:39.663Z,18.16
2023-05-19T11:55:49.384Z,18.19
2023-05-19T11:56:51.534Z,18.20
2023-05-19T11:58:04.066Z,18.29
2023-05-19T11:59:06.854Z,18.35
2023-05-19T12:00:09.316Z,18.35
2023-05-19T12:01:11.130Z,18.30
2023-05-19T12:02:16.100Z,18.33
2023-05-19T12:03:21.794Z,18.37
2023-05-19T12:04:23.814Z,18.39
2023-05-19T12:05:26.588Z,18.40
2023-05-19T12:06:29.865Z,18.45
2023-05-19T12:07:31.872Z,18.47
2023-05-19T12:08:34.839Z,18.52
2023-05-19T12:09:36.991Z,18.59
2023-05-19T12:10:39.812Z,18.61
2023-05-19T12:11:41.519Z,18.53
2023-05-19T12:12:45.176Z,18.57
2023-05-19T12:13:47.847Z,18.55
2023-05-19T12:14:54.054Z,18.57
2023-05-19T12:16:00.431Z,18.59
2023-05-19T12:17:16.554Z,18.60
2023-05-19T12:18:20.007Z,18.60
2023-05-19T12:19:25.838Z,18.65
2023-05-19T12:20:29.714Z,18.73
2023-05-19T12:21:34.166Z,18.81
2023-05-19T12:22:36.833Z,18.89
2023-05-19T12:23:39.095Z,18.79
2023-05-19T12:24:42.674Z,18.69
2023-05-19T12:25:44.776Z,18.68
2023-05-19T12:26:47.138Z,18.59
2023-05-19T12:27:49.663Z,18.60
2023-05-19T12:28:52.669Z,18.56
2023-05-19T12:29:55.825Z,18.49
2023-05-19T12:30:58.877Z,18.47
2023-05-19T12:32:01.421Z,18.51
2023-05-19T12:33:03.503Z,18.49
2023-05-19T12:34:05.395Z,18.56
2023-05-19T12:35:07.512Z,18.58
2023-05-19T12:36:10.299Z,18.57
2023-05-19T12:37:12.082Z,18.61
2023-05-19T12:38:15.748Z,18.62
2023-05-19T12:39:18.042Z,18.64
2023-05-19T12:40:21.295Z,18.66
2023-05-19T12:41:25.126Z,18.74
2023-05-19T12:42:31.757Z,18.76
2023-05-19T12:43:33.648Z,18.74
2023-05-19T12:44:55.473Z,18.74
2023-05-19T12:45:57.264Z,18.66
2023-05-19T12:46:59.631Z,18.66
2023-05-19T12:48:04.611Z,18.61
2023-05-19T12:49:06.260Z,18.48
2023-05-19T12:50:09.966Z,18.48
2023-05-19T12:51:19.271Z,18.54
2023-05-19T12:52:23.582Z,18.54
2023-05-19T12:53:27.821Z,18.58
2023-05-19T12:54:34.243Z,18.64
2023-05-19T12:55:43.580Z,18.65
2023-05-19T12:56:52.373Z,18.60
2023-05-19T12:57:56.889Z,18.64
2023-05-19T12:59:00.937Z,18.71
2023-05-19T13:00:22.846Z,18.83
2023-05-19T13:01:24.792Z,18.81
2023-05-19T13:02:26.627Z,18.86
2023-05-19T13:03:28.670Z,18.92
2023-05-19T13:04:30.541Z,18.82
2023-05-19T13:05:43.762Z,18.83
2023-05-19T13:06:47.409Z,18.86
2023-05-19T13:08:05.303Z,18.92
2023-05-19T13:09:07.417Z,18.97
2023-05-19T13:10:09.473Z,19.07
2023-05-19T13:11:11.745Z,19.16
2023-05-19T13:12:13.678Z,19.26
2023-05-19T13:13:16.444Z,19.17
2023-05-19T13:14:18.805Z,19.11
2023-05-19T13:15:22.294Z,19.01
2023-05-19T13:16:24.155Z,18.88
2023-05-19T13:17:26.676Z,18.74
2023-05-19T13:18:31.949Z,18.81
2023-05-19T13:19:33.931Z,18.84
2023-05-19T13:20:40.878Z,18.89
2023-05-19T13:21:42.610Z,18.90
2023-05-19T13:22:44.713Z,18.83
2023-05-19T13:23:46.286Z,18.83
2023-05-19T13:24:48.408Z,18.87
2023-05-19T13:25:51.473Z,18.83
2023-05-19T13:26:56.192Z,18.77
2023-05-19T13:28:01.115Z,18.69
2023-05-19T13:29:03.238Z,18.64
2023-05-19T13:30:05.641Z,18.48
2023-05-19T13:31:07.442Z,18.53
2023-05-19T13:32:09.245Z,18.56
2023-05-19T13:33:11.999Z,18.58
2023-05-19T13:34:13.940Z,18.60
2023-05-19T13:35:16.013Z,18.57
2023-05-19T13:36:17.627Z,18.52
2023-05-19T13:37:19.789Z,18.62
2023-05-19T13:38:21.524Z,18.68
2023-05-19T13:39:23.388Z,18.65
2023-05-19T13:40:26.022Z,18.52
2023-05-19T13:41:30.275Z,18.60
2023-05-19T13:42:33.592Z,18.58
2023-05-19T13:43:35.371Z,18.64
2023-05-19T13:44:37.397Z,18.64
2023-05-19T13:45:39.364Z,18.69
2023-05-19T13:46:45.402Z,18.66
2023-05-19T13:47:48.711Z,18.58
2023-05-19T13:48:50.303Z,18.51
2023-05-19T13:49:52.851Z,18.55
2023-05-19T13:50:55.737Z,18.48
2023-05-19T13:51:58.563Z,18.55
2023-05-19T13:53:00.544Z,18.51
2023-05-19T13:54:02.850Z,18.59
2023-05-19T13:55:04.941Z,18.64
2023-05-19T13:56:07.023Z,18.72
2023-05-19T13:57:08.979Z,18.83
2023-05-19T13:58:11.271Z,18.89
2023-05-19T13:59:13.844Z,18.95
2023-05-19T14:00:15.896Z,18.97
2023-05-19T14:01:17.559Z,19.00